Time;durP1;ratioP1;P1;durP2;ratioP2;P2;SDS_P1;SDS_P2;PMS_P1;PMS_P2;Temp;Humidity;BMP_temperature;BMP_pressure;BME280_temperature;BME280_humidity;BME280_pressure;Samples;Min_cycle;Max_cycle;Signal;HPM_P1;HPM_P2
2021/12/18 00:01:27;;;;;;;29.00;22.13;;;;;;;;;;4895347;29;20107;-70
2021/12/18 00:03:53;;;;;;;30.02;23.38;;;;;;;;;;4900907;29;20485;-70
2021/12/18 00:06:20;;;;;;;29.48;21.58;;;;;;;;;;4898885;29;20040;-70
2021/12/18 00:08:46;;;;;;;29.65;22.83;;;;;;;;;;4911536;29;20045;-70
2021/12/18 00:11:12;;;;;;;31.38;22.45;;;;;;;;;;4915576;29;20043;-70
2021/12/18 00:13:38;;;;;;;28.83;21.75;;;;;;;;;;4899095;29;20047;-70
2021/12/18 00:16:04;;;;;;;29.23;22.13;;;;;;;;;;4903158;29;20703;-70
2021/12/18 00:18:31;;;;;;;32.20;22.50;;;;;;;;;;4897913;29;20081;-69
2021/12/18 00:20:58;;;;;;;29.92;23.15;;;;;;;;;;4900474;29;20048;-70
2021/12/18 00:23:25;;;;;;;32.10;23.42;;;;;;;;;;4897218;29;20591;-70
2021/12/18 00:25:51;;;;;;;28.90;23.20;;;;;;;;;;4898346;29;20048;-70
2021/12/18 00:28:16;;;;;;;32.00;22.83;;;;;;;;;;4903059;29;20032;-71
2021/12/18 00:30:42;;;;;;;29.13;23.38;;;;;;;;;;4901185;29;20071;-70
2021/12/18 00:33:08;;;;;;;30.48;22.58;;;;;;;;;;4902574;29;20556;-71
2021/12/18 00:35:34;;;;;;;29.15;23.05;;;;;;;;;;4900004;29;20154;-71
2021/12/18 00:38:05;;;;;;;32.80;23.17;;;;;;;;;;4901272;29;20043;-70
2021/12/18 00:40:44;;;;;;;25.40;22.05;;;;;;;;;;4903186;29;20079;-70
2021/12/18 00:43:24;;;;;;;29.83;22.80;;;;;;;;;;4916333;29;21091;-69
2021/12/18 00:45:50;;;;;;;29.67;22.33;;;;;;;;;;4909691;29;20039;-70
2021/12/18 00:48:16;;;;;;;30.15;22.80;;;;;;;;;;4902195;29;20119;-70
2021/12/18 00:50:41;;;;;;;30.92;23.58;;;;;;;;;;4898105;29;20247;-70
2021/12/18 00:53:07;;;;;;;27.42;22.35;;;;;;;;;;4897050;29;20116;-69
2021/12/18 00:55:34;;;;;;;30.77;23.33;;;;;;;;;;4897440;29;20216;-69
2021/12/18 00:58:00;;;;;;;27.73;22.52;;;;;;;;;;4915163;29;20127;-69
2021/12/18 01:00:26;;;;;;;28.00;22.05;;;;;;;;;;4896678;29;20190;-70
2021/12/18 01:02:58;;;;;;;28.08;22.10;;;;;;;;;;4910115;29;20043;-70
2021/12/18 01:05:24;;;;;;;31.08;23.98;;;;;;;;;;4892846;29;20060;-69
2021/12/18 01:07:50;;;;;;;27.58;21.65;;;;;;;;;;4890473;29;20120;-69
2021/12/18 01:12:56;;;;;;;27.75;21.90;;;;;;;;;;4894717;29;20077;-69
2021/12/18 01:15:35;;;;;;;31.70;22.88;;;;;;;;;;4890944;29;20063;-69
2021/12/18 01:23:30;;;;;;;30.48;22.20;;;;;;;;;;4890380;29;20042;-69
2021/12/18 01:25:57;;;;;;;26.75;21.67;;;;;;;;;;4891146;29;20056;-69
2021/12/18 01:28:23;;;;;;;29.23;22.88;;;;;;;;;;4878311;29;20047;-70
2021/12/18 01:30:50;;;;;;;29.90;22.33;;;;;;;;;;4883157;29;20155;-70
2021/12/18 01:33:16;;;;;;;27.90;22.45;;;;;;;;;;4906005;29;20635;-70
2021/12/18 01:35:43;;;;;;;29.85;23.05;;;;;;;;;;4891759;29;20064;-70
2021/12/18 01:38:10;;;;;;;30.13;23.50;;;;;;;;;;4891206;29;20569;-70
2021/12/18 01:40:36;;;;;;;28.23;21.83;;;;;;;;;;4890573;29;20434;-70
2021/12/18 01:51:34;;;;;;;32.40;23.23;;;;;;;;;;4886644;29;20534;-69
2021/12/18 01:54:00;;;;;;;30.05;22.45;;;;;;;;;;4891904;29;20052;-69
2021/12/18 01:56:27;;;;;;;32.03;23.52;;;;;;;;;;4892505;29;20045;-69
2021/12/18 01:58:55;;;;;;;35.95;23.90;;;;;;;;;;4885731;29;20115;-71
2021/12/18 02:01:21;;;;;;;33.08;23.38;;;;;;;;;;4887332;29;20526;-69
2021/12/18 02:03:47;;;;;;;36.80;22.50;;;;;;;;;;4892170;29;20041;-70
2021/12/18 02:06:13;;;;;;;35.28;23.67;;;;;;;;;;4890178;29;20168;-70
2021/12/18 02:08:43;;;;;;;33.95;23.20;;;;;;;;;;4889621;29;20117;-70
2021/12/18 02:11:14;;;;;;;29.23;22.50;;;;;;;;;;4890175;29;20499;-70
2021/12/18 02:21:42;;;;;;;31.38;21.13;;;;;;;;;;4888595;29;20028;-70
2021/12/18 02:24:08;;;;;;;31.52;21.63;;;;;;;;;;4891221;29;20131;-70
2021/12/18 02:26:34;;;;;;;30.98;22.77;;;;;;;;;;4904427;29;20044;-70
2021/12/18 02:29:02;;;;;;;32.03;22.52;;;;;;;;;;4892484;29;20048;-69
2021/12/18 02:31:29;;;;;;;37.03;23.02;;;;;;;;;;4906048;29;20056;-70
2021/12/18 02:33:55;;;;;;;32.20;23.45;;;;;;;;;;4890623;29;20068;-70
2021/12/18 02:36:25;;;;;;;33.40;23.35;;;;;;;;;;4891886;29;20500;-70
2021/12/18 02:44:00;;;;;;;30.45;21.50;;;;;;;;;;4891919;29;20112;-70
2021/12/18 02:46:26;;;;;;;29.20;21.48;;;;;;;;;;4892481;29;20475;-69
2021/12/18 02:48:53;;;;;;;30.33;20.92;;;;;;;;;;4892154;29;20112;-69
2021/12/18 02:51:20;;;;;;;32.63;22.35;;;;;;;;;;4903619;29;20405;-70
2021/12/18 02:53:48;;;;;;;31.95;21.50;;;;;;;;;;4889706;29;20044;-70
2021/12/18 02:56:16;;;;;;;29.38;21.20;;;;;;;;;;4903059;29;20404;-69
2021/12/18 02:58:45;;;;;;;28.88;21.70;;;;;;;;;;4887896;29;20036;-69
2021/12/18 03:01:12;;;;;;;;;;;;;;;;;;4889691;29;20481;-70
2021/12/18 03:03:40;;;;;;;29.13;20.08;;;;;;;;;;4895440;29;19963;-69
2021/12/18 03:06:21;;;;;;;29.10;21.17;;;;;;;;;;4909208;29;20048;-69
2021/12/18 03:08:58;;;;;;;26.77;20.58;;;;;;;;;;4883073;29;20044;-70
2021/12/18 03:27:42;;;;;;;28.17;20.52;;;;;;;;;;4907568;29;20551;-70
2021/12/18 03:30:08;;;;;;;31.65;21.17;;;;;;;;;;4891978;29;20068;-70
2021/12/18 03:32:34;;;;;;;29.25;20.73;;;;;;;;;;4892154;29;20135;-70
2021/12/18 03:35:00;;;;;;;27.13;20.60;;;;;;;;;;4892829;29;20147;-70
2021/12/18 03:37:26;;;;;;;28.77;20.08;;;;;;;;;;4887011;29;20119;-70
2021/12/18 03:39:51;;;;;;;30.27;20.67;;;;;;;;;;4892078;29;20492;-70
2021/12/18 03:42:17;;;;;;;28.58;20.98;;;;;;;;;;4894037;29;20499;-69
2021/12/18 03:44:43;;;;;;;30.70;21.52;;;;;;;;;;4895115;29;20037;-70
2021/12/18 03:47:08;;;;;;;28.65;21.40;;;;;;;;;;4892947;29;20040;-70
2021/12/18 03:49:34;;;;;;;28.48;20.13;;;;;;;;;;4891242;29;20123;-70
2021/12/18 03:52:01;;;;;;;30.48;21.67;;;;;;;;;;4894032;29;20172;-70
2021/12/18 03:54:27;;;;;;;30.95;21.40;;;;;;;;;;4894214;29;20051;-70
2021/12/18 03:56:52;;;;;;;33.03;21.60;;;;;;;;;;4891332;29;20036;-70
2021/12/18 03:59:18;;;;;;;29.05;20.45;;;;;;;;;;4902211;29;20048;-70
2021/12/18 04:01:44;;;;;;;31.75;21.05;;;;;;;;;;4891429;29;20041;-70
2021/12/18 04:04:10;;;;;;;32.75;22.23;;;;;;;;;;4892144;29;20579;-70
2021/12/18 04:06:39;;;;;;;31.17;22.65;;;;;;;;;;4893139;29;20041;-70
2021/12/18 04:09:06;;;;;;;33.78;21.45;;;;;;;;;;4894673;29;20235;-70
2021/12/18 04:11:32;;;;;;;32.03;22.00;;;;;;;;;;4903462;29;20045;-70
2021/12/18 04:13:58;;;;;;;34.05;21.02;;;;;;;;;;4891247;29;20040;-70
2021/12/18 04:16:24;;;;;;;30.75;21.83;;;;;;;;;;4893767;29;20195;-70
2021/12/18 04:18:49;;;;;;;27.88;20.27;;;;;;;;;;4893599;29;20040;-71
2021/12/18 04:21:15;;;;;;;31.83;21.35;;;;;;;;;;4890757;29;20224;-71
2021/12/18 04:23:41;;;;;;;36.40;22.58;;;;;;;;;;4890591;29;20048;-71
2021/12/18 04:26:06;;;;;;;31.88;21.75;;;;;;;;;;4877909;29;20047;-71
2021/12/18 04:28:32;;;;;;;28.65;21.35;;;;;;;;;;4893762;29;20044;-71
2021/12/18 04:30:58;;;;;;;32.15;21.75;;;;;;;;;;4890675;29;20063;-71
2021/12/18 04:33:24;;;;;;;30.10;21.08;;;;;;;;;;4889402;29;20551;-71
2021/12/18 04:35:49;;;;;;;28.95;20.48;;;;;;;;;;4891891;29;20367;-70
2021/12/18 04:38:15;;;;;;;31.67;20.67;;;;;;;;;;4884126;29;20078;-70
2021/12/18 04:40:43;;;;;;;27.95;19.90;;;;;;;;;;4890835;29;20047;-71
2021/12/18 04:43:09;;;;;;;27.92;20.50;;;;;;;;;;4893044;29;20119;-70
2021/12/18 04:45:34;;;;;;;30.83;20.88;;;;;;;;;;4889123;29;20043;-70
2021/12/18 04:48:00;;;;;;;28.42;20.00;;;;;;;;;;4889928;29;20131;-70
2021/12/18 04:50:26;;;;;;;27.85;19.98;;;;;;;;;;4892933;29;20068;-71
2021/12/18 04:52:52;;;;;;;26.80;19.08;;;;;;;;;;4891699;29;20044;-70
2021/12/18 04:55:18;;;;;;;23.98;19.10;;;;;;;;;;4892837;29;20119;-71
2021/12/18 04:57:44;;;;;;;28.70;20.05;;;;;;;;;;4892459;29;20144;-70
2021/12/18 05:00:14;;;;;;;27.38;20.20;;;;;;;;;;4883051;29;20101;-70
2021/12/18 05:02:42;;;;;;;;;;;;;;;;;;4891459;29;20108;-70
2021/12/18 05:05:13;;;;;;;28.33;18.63;;;;;;;;;;4893148;29;19915;-71
2021/12/18 05:07:40;;;;;;;25.88;19.15;;;;;;;;;;4892027;29;20400;-71
2021/12/18 05:10:08;;;;;;;24.33;19.25;;;;;;;;;;4889986;29;20119;-71
2021/12/18 05:12:34;;;;;;;26.75;20.38;;;;;;;;;;4889596;29;20071;-71
2021/12/18 05:14:59;;;;;;;28.63;18.75;;;;;;;;;;4893314;29;20075;-71
2021/12/18 05:17:25;;;;;;;28.70;20.27;;;;;;;;;;4907215;29;20544;-71
2021/12/18 05:19:51;;;;;;;26.13;18.90;;;;;;;;;;4883821;29;20043;-70
2021/12/18 05:22:17;;;;;;;28.98;20.35;;;;;;;;;;4892223;29;20033;-71
2021/12/18 05:24:43;;;;;;;28.77;20.23;;;;;;;;;;4888216;29;20037;-71
2021/12/18 05:27:08;;;;;;;27.40;20.08;;;;;;;;;;4907155;29;20044;-71
2021/12/18 05:29:34;;;;;;;26.33;19.48;;;;;;;;;;4887461;29;20068;-71
2021/12/18 05:31:59;;;;;;;25.85;19.13;;;;;;;;;;4889812;29;20036;-71
2021/12/18 05:34:32;;;;;;;27.75;20.35;;;;;;;;;;4878734;29;20047;-71
2021/12/18 05:39:27;;;;;;;28.10;19.00;;;;;;;;;;4904536;29;20463;-71
2021/12/18 05:41:53;;;;;;;30.85;20.30;;;;;;;;;;4906475;29;20040;-71
2021/12/18 05:44:20;;;;;;;29.48;19.95;;;;;;;;;;4892160;29;20044;-71
2021/12/18 05:46:47;;;;;;;28.63;20.08;;;;;;;;;;4887324;29;20040;-71
2021/12/18 05:49:13;;;;;;;29.23;20.08;;;;;;;;;;4891215;29;20139;-71
2021/12/18 05:51:40;;;;;;;29.35;19.70;;;;;;;;;;4891469;29;20033;-71
2021/12/18 05:54:06;;;;;;;23.13;17.95;;;;;;;;;;4906228;29;20079;-71
2021/12/18 05:56:32;;;;;;;25.60;19.23;;;;;;;;;;4890425;29;20060;-71
2021/12/18 05:58:59;;;;;;;29.70;19.65;;;;;;;;;;4890131;29;20045;-69
2021/12/18 06:01:25;;;;;;;28.00;19.20;;;;;;;;;;4892115;29;20532;-72
2021/12/18 06:03:51;;;;;;;25.63;18.80;;;;;;;;;;4890345;29;20036;-69
2021/12/18 06:06:17;;;;;;;27.88;19.77;;;;;;;;;;4888054;29;20138;-69
2021/12/18 06:08:43;;;;;;;27.02;18.58;;;;;;;;;;4903717;29;20362;-69
2021/12/18 06:11:16;;;;;;;23.27;17.77;;;;;;;;;;4891851;29;20089;-69
2021/12/18 06:13:44;;;;;;;25.38;18.48;;;;;;;;;;4892565;29;20400;-69
2021/12/18 06:16:10;;;;;;;23.65;18.23;;;;;;;;;;4890621;29;20071;-69
2021/12/18 06:18:42;;;;;;;25.38;18.65;;;;;;;;;;4891633;29;20063;-70
2021/12/18 06:21:09;;;;;;;23.55;17.50;;;;;;;;;;4891664;29;20051;-70
2021/12/18 06:23:35;;;;;;;23.98;18.35;;;;;;;;;;4888072;29;20037;-69
2021/12/18 06:26:01;;;;;;;21.52;16.75;;;;;;;;;;4888224;29;20411;-71
2021/12/18 06:28:27;;;;;;;22.48;17.63;;;;;;;;;;4893303;29;20043;-71
2021/12/18 06:30:53;;;;;;;25.67;18.77;;;;;;;;;;4894489;29;20036;-71
2021/12/18 06:33:19;;;;;;;20.70;17.02;;;;;;;;;;4893155;29;20040;-71
2021/12/18 06:35:45;;;;;;;22.15;17.52;;;;;;;;;;4893989;29;20040;-70
2021/12/18 06:38:10;;;;;;;24.10;18.00;;;;;;;;;;4895494;29;20080;-71
2021/12/18 06:40:36;;;;;;;26.02;17.58;;;;;;;;;;4894954;29;20032;-70
2021/12/18 06:43:02;;;;;;;24.13;17.13;;;;;;;;;;4895020;29;20445;-71
2021/12/18 06:45:28;;;;;;;24.98;17.15;;;;;;;;;;4902482;29;20041;-71
2021/12/18 06:47:54;;;;;;;22.30;16.85;;;;;;;;;;4895567;29;20120;-71
2021/12/18 06:50:20;;;;;;;23.45;18.00;;;;;;;;;;4894052;29;20036;-71
2021/12/18 06:52:46;;;;;;;26.60;17.30;;;;;;;;;;4892966;29;20083;-71
2021/12/18 06:55:12;;;;;;;21.98;17.60;;;;;;;;;;4906400;29;20401;-70
2021/12/18 06:57:38;;;;;;;24.20;17.83;;;;;;;;;;4895339;29;20064;-70
2021/12/18 07:00:10;;;;;;;21.35;17.95;;;;;;;;;;4892798;29;20516;-70
2021/12/18 07:02:36;;;;;;;20.40;15.80;;;;;;;;;;4892163;29;20040;-70
2021/12/18 07:05:01;;;;;;;20.55;17.23;;;;;;;;;;4895281;29;20084;-70
2021/12/18 07:07:27;;;;;;;19.20;17.08;;;;;;;;;;4894655;29;20544;-70
2021/12/18 07:09:53;;;;;;;21.67;16.88;;;;;;;;;;4899598;29;20032;-69
2021/12/18 07:12:18;;;;;;;26.30;18.75;;;;;;;;;;4893080;29;20040;-70
2021/12/18 07:14:44;;;;;;;30.98;22.75;;;;;;;;;;4895089;29;20052;-70
2021/12/18 07:17:10;;;;;;;23.67;18.20;;;;;;;;;;4894538;29;20033;-70
2021/12/18 07:19:35;;;;;;;24.40;18.45;;;;;;;;;;4893096;29;20052;-70
2021/12/18 07:22:01;;;;;;;23.27;18.10;;;;;;;;;;4893121;29;20064;-70
2021/12/18 07:24:27;;;;;;;73.28;42.80;;;;;;;;;;4894286;29;20086;-70
2021/12/18 07:26:52;;;;;;;23.42;18.70;;;;;;;;;;4894822;29;20096;-70
2021/12/18 07:29:19;;;;;;;34.35;22.45;;;;;;;;;;4888830;29;20116;-70
2021/12/18 07:31:44;;;;;;;24.52;18.23;;;;;;;;;;4891616;29;20508;-70
2021/12/18 07:34:10;;;;;;;37.65;25.90;;;;;;;;;;4892023;29;20183;-70
2021/12/18 07:36:36;;;;;;;21.83;17.48;;;;;;;;;;4894577;29;20036;-70
2021/12/18 07:39:03;;;;;;;21.52;16.88;;;;;;;;;;4892628;29;20040;-70
2021/12/18 07:41:29;;;;;;;28.77;19.35;;;;;;;;;;4893339;29;20033;-70
2021/12/18 07:43:54;;;;;;;22.48;16.77;;;;;;;;;;4894868;29;20040;-70
2021/12/18 07:46:20;;;;;;;27.02;19.70;;;;;;;;;;4892440;29;20454;-70
2021/12/18 07:48:46;;;;;;;25.38;18.45;;;;;;;;;;4888945;29;20067;-71
2021/12/18 07:51:12;;;;;;;32.60;22.48;;;;;;;;;;4893641;29;20051;-70
2021/12/18 07:53:37;;;;;;;21.33;17.50;;;;;;;;;;4891154;29;20157;-70
2021/12/18 07:56:04;;;;;;;18.55;16.55;;;;;;;;;;4891800;29;20041;-70
2021/12/18 07:58:30;;;;;;;22.95;17.10;;;;;;;;;;4902142;29;20043;-71
2021/12/18 08:00:56;;;;;;;21.83;17.10;;;;;;;;;;4896963;29;20060;-72
2021/12/18 08:03:22;;;;;;;26.23;18.50;;;;;;;;;;4891881;29;20510;-69
2021/12/18 08:05:48;;;;;;;22.83;17.50;;;;;;;;;;4881315;29;20100;-69
2021/12/18 08:08:13;;;;;;;20.73;17.33;;;;;;;;;;4894776;29;20478;-70
2021/12/18 08:10:39;;;;;;;21.42;16.77;;;;;;;;;;4884940;29;20397;-71
2021/12/18 08:13:04;;;;;;;21.75;17.05;;;;;;;;;;4905461;29;20041;-69
2021/12/18 08:15:30;;;;;;;21.27;17.00;;;;;;;;;;4897515;29;20077;-69
2021/12/18 08:18:04;;;;;;;18.65;15.75;;;;;;;;;;4893553;29;20051;-71
2021/12/18 08:20:29;;;;;;;22.70;17.08;;;;;;;;;;4891015;29;20060;-71
2021/12/18 08:22:55;;;;;;;23.25;17.02;;;;;;;;;;4890930;29;20056;-71
2021/12/18 08:25:21;;;;;;;21.35;17.25;;;;;;;;;;4882297;29;20037;-70
2021/12/18 08:27:46;;;;;;;21.15;16.27;;;;;;;;;;4889469;29;20489;-71
2021/12/18 08:30:13;;;;;;;24.38;16.92;;;;;;;;;;4892858;29;20072;-71
2021/12/18 08:32:40;;;;;;;20.73;16.42;;;;;;;;;;4893588;29;20047;-69
2021/12/18 08:35:08;;;;;;;22.45;17.80;;;;;;;;;;4892597;29;20438;-70
2021/12/18 08:37:33;;;;;;;23.38;16.35;;;;;;;;;;4887482;29;20044;-70
2021/12/18 08:39:59;;;;;;;19.88;16.15;;;;;;;;;;4907989;29;20134;-69
2021/12/18 08:42:25;;;;;;;22.60;16.48;;;;;;;;;;4895120;29;20110;-70
2021/12/18 08:44:50;;;;;;;22.25;17.60;;;;;;;;;;4893873;29;20636;-70
2021/12/18 08:47:17;;;;;;;18.70;16.67;;;;;;;;;;4899361;29;20055;-70
2021/12/18 08:49:43;;;;;;;20.80;16.73;;;;;;;;;;4915285;29;20045;-70
2021/12/18 08:52:09;;;;;;;19.33;16.98;;;;;;;;;;4894803;29;20084;-69
2021/12/18 08:54:35;;;;;;;22.15;17.40;;;;;;;;;;4894615;29;20075;-69
2021/12/18 08:57:01;;;;;;;19.77;16.02;;;;;;;;;;4901425;29;20072;-70
2021/12/18 08:59:26;;;;;;;19.13;15.73;;;;;;;;;;4898610;29;20043;-70
2021/12/18 09:01:52;;;;;;;23.30;17.45;;;;;;;;;;4894165;29;20108;-69
2021/12/18 09:04:17;;;;;;;19.98;16.20;;;;;;;;;;4898673;29;20488;-70
2021/12/18 09:06:43;;;;;;;20.17;15.65;;;;;;;;;;4900897;29;20046;-70
2021/12/18 09:09:09;;;;;;;21.50;16.30;;;;;;;;;;4900294;29;20032;-70
2021/12/18 09:11:34;;;;;;;19.02;15.55;;;;;;;;;;4893654;29;20504;-69
2021/12/18 09:14:02;;;;;;;18.67;16.02;;;;;;;;;;4898489;29;20076;-70
2021/12/18 09:16:30;;;;;;;22.30;15.98;;;;;;;;;;4900347;29;20036;-70
2021/12/18 09:18:56;;;;;;;21.65;18.00;;;;;;;;;;4894730;29;20040;-70
2021/12/18 09:21:22;;;;;;;18.92;15.60;;;;;;;;;;4895924;29;20043;-70
2021/12/18 09:23:48;;;;;;;24.02;17.42;;;;;;;;;;4893507;29;20087;-70
2021/12/18 09:26:13;;;;;;;24.60;17.55;;;;;;;;;;4888932;29;20108;-70
2021/12/18 09:28:39;;;;;;;17.35;15.48;;;;;;;;;;4888639;29;20028;-70
2021/12/18 09:31:05;;;;;;;19.05;16.10;;;;;;;;;;4890481;29;20103;-70
2021/12/18 09:33:30;;;;;;;20.23;15.55;;;;;;;;;;4892676;29;20100;-70
2021/12/18 09:35:56;;;;;;;18.02;15.18;;;;;;;;;;4892314;29;20327;-70
2021/12/18 09:38:21;;;;;;;18.70;15.23;;;;;;;;;;4883793;29;20115;-70
2021/12/18 09:40:48;;;;;;;20.27;16.85;;;;;;;;;;4889863;29;20301;-70
2021/12/18 09:43:14;;;;;;;19.10;16.02;;;;;;;;;;4890883;29;20032;-70
2021/12/18 09:45:39;;;;;;;18.95;16.40;;;;;;;;;;4892103;29;20067;-70
2021/12/18 09:48:06;;;;;;;18.92;16.35;;;;;;;;;;4888803;29;20033;-70
2021/12/18 09:50:34;;;;;;;17.85;15.32;;;;;;;;;;4890978;29;20405;-70
2021/12/18 09:53:00;;;;;;;18.77;15.98;;;;;;;;;;4891535;29;20033;-69
2021/12/18 09:55:26;;;;;;;20.52;15.77;;;;;;;;;;4892019;29;20453;-70
2021/12/18 09:57:52;;;;;;;18.27;15.73;;;;;;;;;;4885024;29;20037;-70
2021/12/18 10:00:23;;;;;;;18.63;15.63;;;;;;;;;;4895804;29;20622;-70
2021/12/18 10:02:49;;;;;;;17.30;15.15;;;;;;;;;;4906632;29;20029;-69
2021/12/18 10:05:24;;;;;;;17.90;14.95;;;;;;;;;;4892650;29;20032;-70
2021/12/18 10:08:08;;;;;;;16.27;14.18;;;;;;;;;;4889895;29;20508;-70
2021/12/18 10:10:35;;;;;;;21.67;14.25;;;;;;;;;;4893761;29;20039;-70
2021/12/18 10:13:08;;;;;;;15.25;13.63;;;;;;;;;;4896014;29;20504;-69
2021/12/18 10:15:35;;;;;;;18.38;15.15;;;;;;;;;;4894654;29;20113;-70
2021/12/18 10:18:11;;;;;;;17.23;15.38;;;;;;;;;;4910968;29;20135;-70
2021/12/18 10:20:38;;;;;;;21.20;15.35;;;;;;;;;;4895406;29;20040;-70
2021/12/18 10:23:05;;;;;;;19.67;15.90;;;;;;;;;;4894022;29;20131;-69
2021/12/18 10:25:42;;;;;;;19.23;15.43;;;;;;;;;;4895423;29;20158;-69
2021/12/18 10:28:15;;;;;;;18.85;15.68;;;;;;;;;;4896117;29;20080;-70
2021/12/18 10:30:53;;;;;;;19.17;15.80;;;;;;;;;;4893829;29;20115;-69
2021/12/18 10:33:19;;;;;;;18.45;15.30;;;;;;;;;;4907772;29;20043;-70
2021/12/18 10:35:54;;;;;;;23.33;17.75;;;;;;;;;;4894671;29;20045;-70
2021/12/18 10:38:38;;;;;;;18.95;16.00;;;;;;;;;;4895645;29;20032;-70
2021/12/18 10:41:27;;;;;;;19.08;16.42;;;;;;;;;;4891788;29;20036;-71
2021/12/18 10:44:06;;;;;;;17.50;14.88;;;;;;;;;;4909418;29;20032;-70
2021/12/18 10:46:34;;;;;;;17.45;15.48;;;;;;;;;;4910344;29;20096;-70
2021/12/18 10:49:17;;;;;;;17.33;14.63;;;;;;;;;;4894273;29;20032;-70
2021/12/18 10:51:46;;;;;;;20.77;16.58;;;;;;;;;;4893610;29;20474;-70
2021/12/18 10:54:21;;;;;;;20.58;17.20;;;;;;;;;;4894835;29;20174;-70
2021/12/18 10:56:51;;;;;;;19.25;15.07;;;;;;;;;;4895877;29;20103;-69
2021/12/18 10:59:31;;;;;;;16.90;15.18;;;;;;;;;;4893898;29;20048;-69
2021/12/18 11:02:00;;;;;;;18.00;15.63;;;;;;;;;;4895045;29;20044;-71
2021/12/18 11:04:38;;;;;;;17.83;14.63;;;;;;;;;;4895352;29;20033;-70
2021/12/18 11:07:44;;;;;;;19.63;16.80;;;;;;;;;;4888081;29;20032;-69
2021/12/18 11:10:42;;;;;;;17.05;14.40;;;;;;;;;;4870713;29;20085;-69
2021/12/18 11:15:53;;;;;;;19.98;16.13;;;;;;;;;;4866192;29;20328;-69
2021/12/18 11:18:20;;;;;;;21.02;15.88;;;;;;;;;;4875446;29;20441;-69
2021/12/18 11:20:51;;;;;;;18.92;16.10;;;;;;;;;;4871425;29;20147;-69
2021/12/18 11:23:39;;;;;;;20.05;16.27;;;;;;;;;;4856614;29;20038;-69
2021/12/18 11:26:08;;;;;;;19.95;16.77;;;;;;;;;;4872797;29;20109;-69
2021/12/18 11:28:35;;;;;;;42.43;31.57;;;;;;;;;;4880958;29;20545;-69
2021/12/18 11:31:02;;;;;;;20.17;17.17;;;;;;;;;;4873967;29;20301;-69
2021/12/18 11:33:31;;;;;;;20.30;16.75;;;;;;;;;;4874168;29;20350;-69
2021/12/18 11:35:57;;;;;;;27.25;21.50;;;;;;;;;;4881275;29;20512;-69
2021/12/18 11:38:24;;;;;;;17.88;15.88;;;;;;;;;;4875860;29;20057;-69
2021/12/18 11:40:50;;;;;;;22.77;16.27;;;;;;;;;;4874351;29;20040;-69
2021/12/18 11:43:36;;;;;;;19.73;15.93;;;;;;;;;;4875921;29;20191;-69
2021/12/18 11:46:23;;;;;;;17.70;14.43;;;;;;;;;;4892995;29;20075;-69
2021/12/18 11:48:53;;;;;;;19.13;15.35;;;;;;;;;;4889173;29;20036;-69
2021/12/18 11:51:19;;;;;;;20.45;16.45;;;;;;;;;;4891346;29;20123;-69
2021/12/18 11:53:45;;;;;;;18.77;15.73;;;;;;;;;;4893868;29;20131;-69
2021/12/18 11:56:11;;;;;;;19.73;15.85;;;;;;;;;;4895093;29;20039;-69
2021/12/18 11:58:42;;;;;;;19.17;16.13;;;;;;;;;;4892368;29;20496;-69
2021/12/18 12:01:14;;;;;;;20.75;16.08;;;;;;;;;;4902011;29;20530;-69
2021/12/18 12:03:50;;;;;;;23.17;16.90;;;;;;;;;;4894185;29;20028;-69
2021/12/18 12:06:18;;;;;;;18.48;15.82;;;;;;;;;;4888336;29;20068;-69
2021/12/18 12:08:45;;;;;;;18.58;16.23;;;;;;;;;;4887238;29;20067;-69
2021/12/18 12:11:16;;;;;;;28.13;18.52;;;;;;;;;;4893265;29;20512;-69
2021/12/18 12:13:59;;;;;;;20.73;16.77;;;;;;;;;;4904827;29;20062;-69
2021/12/18 12:16:43;;;;;;;21.17;17.17;;;;;;;;;;4891545;29;20448;-69
2021/12/18 12:19:19;;;;;;;22.58;17.00;;;;;;;;;;4888460;29;20044;-69
2021/12/18 12:21:53;;;;;;;49.83;25.60;;;;;;;;;;4891771;29;20409;-69
2021/12/18 12:24:30;;;;;;;35.00;23.23;;;;;;;;;;4908138;29;20123;-69
2021/12/18 12:27:25;;;;;;;40.47;26.20;;;;;;;;;;4891726;29;20063;-69
2021/12/18 12:29:52;;;;;;;20.38;16.83;;;;;;;;;;4887802;29;20063;-68
2021/12/18 12:32:20;;;;;;;19.63;17.13;;;;;;;;;;4893608;29;20397;-69
2021/12/18 12:35:02;;;;;;;22.05;17.75;;;;;;;;;;4889644;29;20060;-69
2021/12/18 12:37:40;;;;;;;21.10;16.80;;;;;;;;;;4891177;29;20040;-69
2021/12/18 12:40:16;;;;;;;22.15;17.25;;;;;;;;;;4892952;29;20157;-69
2021/12/18 12:43:09;;;;;;;25.35;17.30;;;;;;;;;;4889078;29;20110;-69
2021/12/18 12:45:38;;;;;;;22.80;17.73;;;;;;;;;;4906605;29;20032;-69
2021/12/18 12:48:04;;;;;;;20.77;17.02;;;;;;;;;;4893258;29;20051;-69
2021/12/18 12:50:31;;;;;;;20.90;17.48;;;;;;;;;;4893311;29;20318;-69
2021/12/18 12:52:59;;;;;;;19.25;16.85;;;;;;;;;;4900811;29;20025;-70
2021/12/18 12:55:28;;;;;;;22.83;17.35;;;;;;;;;;4884988;29;20262;-69
2021/12/18 12:58:01;;;;;;;22.07;18.27;;;;;;;;;;4893125;29;20045;-71
2021/12/18 13:00:27;;;;;;;24.95;21.23;;;;;;;;;;4891889;29;20793;-70
2021/12/18 13:03:15;;;;;;;22.65;17.92;;;;;;;;;;4893120;29;20119;-70
2021/12/18 13:06:05;;;;;;;24.52;19.35;;;;;;;;;;4903268;29;20094;-68
2021/12/18 13:08:34;;;;;;;20.27;16.98;;;;;;;;;;4889253;29;20519;-70
2021/12/18 13:11:01;;;;;;;21.80;17.23;;;;;;;;;;4891630;29;20040;-70
2021/12/18 13:13:30;;;;;;;22.98;17.67;;;;;;;;;;4892541;29;20330;-70
2021/12/18 13:16:00;;;;;;;23.70;18.20;;;;;;;;;;4892411;29;20037;-70
2021/12/18 13:18:47;;;;;;;25.55;18.77;;;;;;;;;;4907373;29;20087;-70
2021/12/18 13:21:21;;;;;;;28.58;18.45;;;;;;;;;;4899946;29;20079;-70
2021/12/18 13:23:56;;;;;;;26.98;18.13;;;;;;;;;;4891935;29;20039;-70
2021/12/18 13:26:27;;;;;;;22.35;18.10;;;;;;;;;;4892827;29;20124;-70
2021/12/18 13:29:02;;;;;;;22.80;17.77;;;;;;;;;;4893616;29;20131;-70
2021/12/18 13:31:30;;;;;;;21.48;17.88;;;;;;;;;;4903608;29;20078;-70
2021/12/18 13:34:03;;;;;;;21.48;17.83;;;;;;;;;;4890741;29;20044;-70
2021/12/18 13:36:48;;;;;;;25.23;19.65;;;;;;;;;;4890649;29;20092;-70
2021/12/18 13:39:20;;;;;;;28.00;19.02;;;;;;;;;;4902863;29;20044;-70
2021/12/18 13:42:04;;;;;;;22.05;17.85;;;;;;;;;;4891734;29;20207;-70
2021/12/18 13:44:46;;;;;;;25.10;18.38;;;;;;;;;;4892459;29;20287;-70
2021/12/18 13:47:20;;;;;;;29.55;19.40;;;;;;;;;;4891467;29;20385;-70
2021/12/18 13:49:48;;;;;;;24.50;18.33;;;;;;;;;;4891066;29;20044;-70
2021/12/18 13:52:30;;;;;;;25.08;18.40;;;;;;;;;;4891656;29;20049;-70
2021/12/18 13:54:56;;;;;;;26.40;19.35;;;;;;;;;;4889126;29;20045;-69
2021/12/18 13:57:22;;;;;;;20.85;16.40;;;;;;;;;;4887359;29;20059;-69
2021/12/18 13:59:59;;;;;;;20.17;17.02;;;;;;;;;;4892502;29;20033;-68
2021/12/18 14:02:26;;;;;;;21.98;17.55;;;;;;;;;;4890093;29;20064;-69
2021/12/18 14:04:52;;;;;;;19.80;17.48;;;;;;;;;;4890492;29;20032;-69
2021/12/18 14:07:19;;;;;;;21.35;18.02;;;;;;;;;;4885661;29;20388;-69
2021/12/18 14:09:49;;;;;;;24.05;18.73;;;;;;;;;;4891760;29;20112;-69
2021/12/18 14:12:21;;;;;;;20.75;18.02;;;;;;;;;;4885359;29;20049;-70
2021/12/18 14:14:50;;;;;;;22.65;17.92;;;;;;;;;;4892478;29;20036;-69
2021/12/18 14:17:29;;;;;;;20.83;17.70;;;;;;;;;;4892868;29;20492;-69
2021/12/18 14:20:10;;;;;;;24.25;17.35;;;;;;;;;;4885171;29;20024;-69
2021/12/18 14:22:37;;;;;;;22.70;17.67;;;;;;;;;;4886715;29;20071;-68
2021/12/18 14:25:13;;;;;;;24.55;18.77;;;;;;;;;;4892011;29;20044;-68
2021/12/18 14:27:50;;;;;;;23.25;17.88;;;;;;;;;;4891214;29;20041;-68
2021/12/18 14:30:19;;;;;;;22.80;18.13;;;;;;;;;;4906732;29;20052;-68
2021/12/18 14:32:45;;;;;;;23.35;18.65;;;;;;;;;;4888254;29;20060;-68
2021/12/18 14:35:13;;;;;;;23.88;19.05;;;;;;;;;;4889823;29;20052;-71
2021/12/18 14:37:54;;;;;;;25.85;18.88;;;;;;;;;;4897784;29;20056;-69
2021/12/18 14:40:23;;;;;;;24.00;18.88;;;;;;;;;;4890680;29;20028;-69
2021/12/18 14:42:59;;;;;;;22.20;16.67;;;;;;;;;;4891117;29;20036;-69
2021/12/18 14:45:28;;;;;;;21.20;16.55;;;;;;;;;;4891920;29;20405;-69
2021/12/18 14:47:57;;;;;;;22.00;17.67;;;;;;;;;;4889634;29;20047;-69
2021/12/18 14:50:25;;;;;;;21.83;16.90;;;;;;;;;;4891811;29;20091;-69
2021/12/18 14:53:09;;;;;;;23.33;17.30;;;;;;;;;;4893898;29;20488;-70
2021/12/18 14:55:43;;;;;;;21.42;18.35;;;;;;;;;;4893124;29;20045;-70
2021/12/18 14:58:21;;;;;;;20.92;17.13;;;;;;;;;;4889982;29;20511;-70
2021/12/18 15:00:51;;;;;;;20.63;17.38;;;;;;;;;;4894422;29;20068;-69
2021/12/18 15:03:19;;;;;;;21.75;17.98;;;;;;;;;;4895194;29;20111;-69
2021/12/18 15:06:06;;;;;;;20.15;17.85;;;;;;;;;;4885457;29;20044;-69
2021/12/18 15:08:45;;;;;;;22.63;17.83;;;;;;;;;;4891983;29;20584;-69
2021/12/18 15:11:17;;;;;;;25.33;18.27;;;;;;;;;;4895207;29;20044;-69
2021/12/18 15:13:46;;;;;;;23.48;18.35;;;;;;;;;;4893108;29;20039;-69
2021/12/18 15:16:15;;;;;;;22.40;17.98;;;;;;;;;;4894364;29;20040;-69
2021/12/18 15:18:47;;;;;;;21.50;18.27;;;;;;;;;;4878556;29;20500;-69
2021/12/18 15:21:15;;;;;;;23.25;18.35;;;;;;;;;;4890641;29;20323;-69